Time;durP1;ratioP1;P1;durP2;ratioP2;P2;SDS_P1;SDS_P2;PMS_P1;PMS_P2;Temp;Humidity;BMP_temperature;BMP_pressure;BME280_temperature;BME280_humidity;BME280_pressure;Samples;Min_cycle;Max_cycle;Signal;HPM_P1;HPM_P2
2021/06/29 00:01:24;;;;;;;44.50;38.90;;;;;;;;;;5007734;28;20577;-67
2021/06/29 00:03:50;;;;;;;46.70;39.58;;;;;;;;;;4991783;28;20178;-67
2021/06/29 00:06:15;;;;;;;46.10;39.15;;;;;;;;;;5000484;28;20194;-67
2021/06/29 00:08:41;;;;;;;49.15;39.22;;;;;;;;;;4997622;28;20784;-67
2021/06/29 00:11:06;;;;;;;46.15;37.03;;;;;;;;;;5005478;28;20202;-67
2021/06/29 00:13:31;;;;;;;42.53;35.58;;;;;;;;;;4998567;28;20296;-67
2021/06/29 00:15:57;;;;;;;41.70;36.60;;;;;;;;;;5008011;28;20217;-67
2021/06/29 00:18:22;;;;;;;42.80;37.33;;;;;;;;;;4996984;28;20191;-67
2021/06/29 00:20:48;;;;;;;45.70;36.92;;;;;;;;;;5004156;28;20244;-67
2021/06/29 00:23:13;;;;;;;42.13;36.25;;;;;;;;;;4994123;28;20253;-67
2021/06/29 00:25:39;;;;;;;44.83;37.60;;;;;;;;;;5006274;28;20260;-67
2021/06/29 00:28:04;;;;;;;44.67;37.38;;;;;;;;;;4997200;28;20206;-67
2021/06/29 00:30:30;;;;;;;46.65;38.75;;;;;;;;;;4998263;28;20229;-67
2021/06/29 00:32:55;;;;;;;50.03;39.60;;;;;;;;;;5003674;28;20221;-67
2021/06/29 00:35:20;;;;;;;42.85;37.47;;;;;;;;;;4993694;28;20523;-67
2021/06/29 00:37:46;;;;;;;43.65;36.95;;;;;;;;;;5002200;28;20248;-67
2021/06/29 00:40:12;;;;;;;42.92;37.58;;;;;;;;;;4996588;28;20187;-67
2021/06/29 00:42:38;;;;;;;45.90;39.95;;;;;;;;;;5006610;28;20249;-67
2021/06/29 00:45:06;;;;;;;48.50;39.03;;;;;;;;;;4993253;28;20319;-67
2021/06/29 00:47:32;;;;;;;49.55;38.85;;;;;;;;;;5002320;28;20697;-67
2021/06/29 00:49:57;;;;;;;43.70;37.45;;;;;;;;;;4997868;28;20230;-67
2021/06/29 00:52:23;;;;;;;43.38;37.10;;;;;;;;;;5004666;28;20196;-67
2021/06/29 00:54:50;;;;;;;46.95;38.45;;;;;;;;;;4995464;28;20178;-67
2021/06/29 00:57:16;;;;;;;43.85;37.83;;;;;;;;;;5002552;28;20603;-67
2021/06/29 00:59:42;;;;;;;42.78;37.70;;;;;;;;;;4999596;28;20261;-67
2021/06/29 01:02:09;;;;;;;40.17;35.65;;;;;;;;;;5002613;28;20175;-67
2021/06/29 01:04:36;;;;;;;41.00;35.38;;;;;;;;;;5007561;28;20190;-67
2021/06/29 01:07:03;;;;;;;45.10;36.08;;;;;;;;;;4997544;28;20241;-67
2021/06/29 01:09:28;;;;;;;45.08;36.03;;;;;;;;;;5006632;28;20210;-67
2021/06/29 01:11:53;;;;;;;45.65;37.03;;;;;;;;;;4994135;28;20203;-67
2021/06/29 01:14:19;;;;;;;46.17;37.97;;;;;;;;;;5007146;28;20183;-67
2021/06/29 01:16:45;;;;;;;49.33;37.92;;;;;;;;;;4995073;28;20190;-67
2021/06/29 01:19:16;;;;;;;52.38;37.55;;;;;;;;;;5005558;28;20254;-67
2021/06/29 01:21:44;;;;;;;49.20;37.85;;;;;;;;;;4990965;28;20218;-67
2021/06/29 01:24:17;;;;;;;50.03;36.95;;;;;;;;;;5007820;28;20179;-67
2021/06/29 01:27:02;;;;;;;53.08;38.50;;;;;;;;;;4995787;28;22602;-66
2021/06/29 01:32:16;;;;;;;52.05;37.80;;;;;;;;;;4995519;28;20201;-67
2021/06/29 01:34:43;;;;;;;48.72;36.00;;;;;;;;;;5009884;28;20191;-67
2021/06/29 01:37:09;;;;;;;48.80;38.05;;;;;;;;;;4995081;28;20199;-67
2021/06/29 01:39:34;;;;;;;49.00;35.72;;;;;;;;;;5009548;28;20187;-67
2021/06/29 01:42:00;;;;;;;47.05;35.38;;;;;;;;;;4992927;28;20188;-67
2021/06/29 01:44:34;;;;;;;42.95;36.25;;;;;;;;;;5006253;28;20218;-67
2021/06/29 01:47:02;;;;;;;43.58;35.92;;;;;;;;;;4992600;28;20186;-67
2021/06/29 01:49:28;;;;;;;44.97;36.20;;;;;;;;;;5006384;28;20326;-67
2021/06/29 01:51:54;;;;;;;47.08;38.40;;;;;;;;;;5004763;28;20281;-67
2021/06/29 01:54:20;;;;;;;52.70;40.22;;;;;;;;;;4996213;28;20278;-67
2021/06/29 01:56:47;;;;;;;50.90;39.05;;;;;;;;;;5003982;28;20210;-67
2021/06/29 01:59:14;;;;;;;48.80;38.40;;;;;;;;;;4995165;28;20175;-67
2021/06/29 02:01:41;;;;;;;52.25;37.97;;;;;;;;;;5004685;28;20622;-67
2021/06/29 02:04:06;;;;;;;53.90;40.75;;;;;;;;;;4994339;28;20245;-67
2021/06/29 02:06:32;;;;;;;53.35;38.83;;;;;;;;;;5007978;28;20324;-67
2021/06/29 02:08:57;;;;;;;54.60;40.20;;;;;;;;;;4995638;28;20190;-67
2021/06/29 02:11:23;;;;;;;50.00;39.53;;;;;;;;;;5003955;28;20248;-67
2021/06/29 02:13:49;;;;;;;55.10;40.72;;;;;;;;;;4995707;28;20186;-67
2021/06/29 02:16:14;;;;;;;52.97;41.47;;;;;;;;;;5002400;28;20201;-66
2021/06/29 02:18:39;;;;;;;56.42;41.78;;;;;;;;;;4998249;28;23233;-66
2021/06/29 02:21:06;;;;;;;53.13;39.17;;;;;;;;;;5005931;28;20694;-67
2021/06/29 02:23:32;;;;;;;48.35;38.03;;;;;;;;;;5006404;28;20182;-67
2021/06/29 02:25:57;;;;;;;54.83;39.97;;;;;;;;;;4996698;28;20226;-66
2021/06/29 02:28:22;;;;;;;60.75;43.13;;;;;;;;;;5009282;28;20196;-66
2021/06/29 02:30:48;;;;;;;59.08;43.22;;;;;;;;;;4998995;28;20300;-66
2021/06/29 02:33:13;;;;;;;63.85;45.35;;;;;;;;;;5004993;28;20306;-67
2021/06/29 02:35:38;;;;;;;59.20;41.95;;;;;;;;;;4999407;28;20190;-66
2021/06/29 02:38:05;;;;;;;57.97;42.45;;;;;;;;;;5024530;28;20185;-66
2021/06/29 02:40:30;;;;;;;57.90;42.70;;;;;;;;;;5000828;28;20214;-67
2021/06/29 02:42:56;;;;;;;62.95;43.63;;;;;;;;;;5005767;28;20209;-66
2021/06/29 02:45:22;;;;;;;58.33;42.67;;;;;;;;;;4997648;28;20190;-66
2021/06/29 02:47:49;;;;;;;60.33;43.08;;;;;;;;;;5002067;28;20182;-66
2021/06/29 02:50:15;;;;;;;67.88;44.67;;;;;;;;;;4999564;28;20237;-67
2021/06/29 02:52:41;;;;;;;67.40;44.95;;;;;;;;;;5004098;28;20237;-67
2021/06/29 02:55:09;;;;;;;67.70;47.53;;;;;;;;;;5005388;28;20626;-67
2021/06/29 02:57:34;;;;;;;68.28;45.67;;;;;;;;;;4995261;28;20615;-67
2021/06/29 03:00:00;;;;;;;61.65;42.65;;;;;;;;;;5005816;28;20223;-67
2021/06/29 03:02:26;;;;;;;66.55;45.72;;;;;;;;;;4995170;28;20188;-67
2021/06/29 03:04:51;;;;;;;72.55;45.47;;;;;;;;;;5006719;28;20194;-67
2021/06/29 03:07:17;;;;;;;73.82;46.95;;;;;;;;;;4996231;28;20562;-67
2021/06/29 03:09:42;;;;;;;72.18;47.53;;;;;;;;;;4999266;28;20709;-67
2021/06/29 03:12:09;;;;;;;75.78;48.13;;;;;;;;;;4995984;28;20187;-67
2021/06/29 03:14:36;;;;;;;80.05;50.25;;;;;;;;;;5012008;28;20205;-67
2021/06/29 03:17:03;;;;;;;77.72;47.72;;;;;;;;;;4998092;28;20225;-67
2021/06/29 03:19:31;;;;;;;74.38;47.33;;;;;;;;;;5005468;28;20573;-67
2021/06/29 03:21:56;;;;;;;72.80;46.78;;;;;;;;;;4994725;28;20198;-67
2021/06/29 03:24:21;;;;;;;78.43;49.03;;;;;;;;;;5012098;28;20325;-67
2021/06/29 03:26:47;;;;;;;78.13;47.55;;;;;;;;;;5000172;28;20183;-67
2021/06/29 03:29:12;;;;;;;67.10;45.22;;;;;;;;;;5001873;28;20254;-67
2021/06/29 03:31:37;;;;;;;68.68;46.22;;;;;;;;;;5003551;28;20222;-67
2021/06/29 03:34:03;;;;;;;69.72;46.40;;;;;;;;;;4999508;28;20199;-67
2021/06/29 03:36:29;;;;;;;71.57;46.22;;;;;;;;;;5004451;28;20190;-67
2021/06/29 03:38:55;;;;;;;68.78;46.67;;;;;;;;;;4993552;28;20382;-67
2021/06/29 03:41:20;;;;;;;72.88;48.20;;;;;;;;;;5003008;28;20316;-66
2021/06/29 03:43:45;;;;;;;72.00;46.95;;;;;;;;;;4998879;28;20756;-66
2021/06/29 03:46:11;;;;;;;69.75;46.55;;;;;;;;;;5004817;28;20190;-66
2021/06/29 03:48:36;;;;;;;73.35;46.97;;;;;;;;;;4995054;28;20210;-67
2021/06/29 03:51:02;;;;;;;75.57;48.38;;;;;;;;;;5005047;28;20269;-66
2021/06/29 03:53:28;;;;;;;78.63;48.38;;;;;;;;;;4993125;28;20273;-66
2021/06/29 03:55:53;;;;;;;77.45;48.85;;;;;;;;;;5004919;28;20245;-66
2021/06/29 03:58:19;;;;;;;81.43;50.65;;;;;;;;;;5012730;28;20217;-66
2021/06/29 04:00:44;;;;;;;78.25;49.47;;;;;;;;;;5001038;28;21045;-66
2021/06/29 04:03:10;;;;;;;81.65;50.85;;;;;;;;;;5001049;28;20186;-67
2021/06/29 04:05:35;;;;;;;77.57;48.10;;;;;;;;;;4995002;28;20244;-67
2021/06/29 04:08:00;;;;;;;76.43;49.28;;;;;;;;;;5002552;28;21698;-67
2021/06/29 04:10:26;;;;;;;76.75;48.65;;;;;;;;;;4997030;28;20207;-67
2021/06/29 04:12:51;;;;;;;72.45;45.70;;;;;;;;;;4999022;28;20183;-67
2021/06/29 04:15:16;;;;;;;57.97;42.85;;;;;;;;;;4984528;28;20182;-66
2021/06/29 04:17:42;;;;;;;59.08;42.10;;;;;;;;;;5002834;28;20191;-66
2021/06/29 04:20:08;;;;;;;54.60;39.95;;;;;;;;;;4997300;28;20422;-67
2021/06/29 04:22:34;;;;;;;57.92;41.08;;;;;;;;;;5002032;28;20346;-67
2021/06/29 04:25:00;;;;;;;54.60;38.80;;;;;;;;;;4991251;28;20273;-67
2021/06/29 04:27:25;;;;;;;54.80;40.15;;;;;;;;;;5004757;28;20183;-67
2021/06/29 04:29:52;;;;;;;51.75;39.08;;;;;;;;;;4998589;28;20373;-67
2021/06/29 04:32:18;;;;;;;52.88;40.38;;;;;;;;;;5002383;28;20198;-67
2021/06/29 04:34:43;;;;;;;52.38;38.40;;;;;;;;;;5004793;28;20696;-67
2021/06/29 04:37:09;;;;;;;54.25;38.60;;;;;;;;;;4991485;28;20666;-67
2021/06/29 04:39:34;;;;;;;53.33;39.05;;;;;;;;;;5006675;28;20512;-67
2021/06/29 04:42:00;;;;;;;51.50;38.20;;;;;;;;;;4997596;28;20187;-67
2021/06/29 04:44:25;;;;;;;49.78;37.70;;;;;;;;;;5005661;28;20186;-67
2021/06/29 04:46:51;;;;;;;52.15;38.63;;;;;;;;;;4302445;28;10000795;-68
2021/06/29 04:49:19;;;;;;;53.00;38.63;;;;;;;;;;5001448;28;20737;-67
2021/06/29 04:51:44;;;;;;;45.30;33.85;;;;;;;;;;4994026;28;20214;-67
2021/06/29 04:54:10;;;;;;;42.10;33.53;;;;;;;;;;5000589;28;20194;-67
2021/06/29 04:56:35;;;;;;;41.92;33.45;;;;;;;;;;4993455;28;20191;-67
2021/06/29 04:59:02;;;;;;;46.38;36.55;;;;;;;;;;5002308;28;20300;-67
2021/06/29 05:01:29;;;;;;;44.25;35.70;;;;;;;;;;4988294;28;20580;-67
2021/06/29 05:03:55;;;;;;;71.20;40.00;;;;;;;;;;4994370;28;20211;-66
2021/06/29 05:06:20;;;;;;;71.50;41.40;;;;;;;;;;4995113;28;21070;-67
2021/06/29 05:08:45;;;;;;;68.55;42.30;;;;;;;;;;4991336;28;20209;-67
2021/06/29 05:11:11;;;;;;;71.88;41.58;;;;;;;;;;4996146;28;20217;-67
2021/06/29 05:13:36;;;;;;;68.95;39.70;;;;;;;;;;4992250;28;20681;-67
2021/06/29 05:16:02;;;;;;;72.40;40.20;;;;;;;;;;4995140;28;20233;-67
2021/06/29 05:18:27;;;;;;;75.53;42.45;;;;;;;;;;4991961;28;20193;-67
2021/06/29 05:20:54;;;;;;;74.72;43.13;;;;;;;;;;4999613;28;20189;-67
2021/06/29 05:23:20;;;;;;;74.35;41.92;;;;;;;;;;4993561;28;20714;-67
2021/06/29 05:25:45;;;;;;;84.93;43.72;;;;;;;;;;4997008;28;20277;-67
2021/06/29 05:28:10;;;;;;;82.45;43.58;;;;;;;;;;4997798;28;20194;-67
2021/06/29 05:30:36;;;;;;;77.43;44.38;;;;;;;;;;4995310;28;20302;-67
2021/06/29 05:33:01;;;;;;;82.00;43.85;;;;;;;;;;4998902;28;20185;-67
2021/06/29 05:35:26;;;;;;;85.28;43.92;;;;;;;;;;4999383;28;20304;-67
2021/06/29 05:37:52;;;;;;;86.95;44.85;;;;;;;;;;5000530;28;20194;-67
2021/06/29 05:40:17;;;;;;;81.10;44.15;;;;;;;;;;4994062;28;20281;-67
2021/06/29 05:42:42;;;;;;;73.15;40.80;;;;;;;;;;5004580;28;20282;-67
2021/06/29 05:45:09;;;;;;;74.78;40.22;;;;;;;;;;4996289;28;20285;-67
2021/06/29 05:47:36;;;;;;;71.22;40.38;;;;;;;;;;5003590;28;20189;-67
2021/06/29 05:50:09;;;;;;;69.18;39.78;;;;;;;;;;5006107;28;20243;-67
2021/06/29 05:52:34;;;;;;;72.25;39.50;;;;;;;;;;5000765;28;20195;-67
2021/06/29 05:54:59;;;;;;;69.63;37.90;;;;;;;;;;4647259;28;10000351;-67
2021/06/29 05:57:25;;;;;;;71.65;40.33;;;;;;;;;;4993956;28;20198;-67
2021/06/29 05:59:50;;;;;;;73.22;39.83;;;;;;;;;;4986951;28;20518;-67
2021/06/29 06:02:17;;;;;;;69.70;38.70;;;;;;;;;;5004841;28;20183;-66
2021/06/29 06:04:42;;;;;;;74.38;39.88;;;;;;;;;;4995787;28;20269;-67
2021/06/29 06:07:07;;;;;;;77.20;39.45;;;;;;;;;;5000125;28;20183;-67
2021/06/29 06:09:33;;;;;;;72.43;38.42;;;;;;;;;;4999305;28;20563;-67
2021/06/29 06:11:58;;;;;;;74.13;39.92;;;;;;;;;;4999007;28;20277;-66
2021/06/29 06:14:24;;;;;;;84.00;40.83;;;;;;;;;;5000546;28;20220;-67
2021/06/29 06:16:49;;;;;;;80.75;40.67;;;;;;;;;;4999596;28;20605;-66
2021/06/29 06:19:15;;;;;;;71.57;40.05;;;;;;;;;;5008547;28;20336;-67
2021/06/29 06:21:40;;;;;;;77.72;41.67;;;;;;;;;;4999563;28;20191;-67
2021/06/29 06:24:06;;;;;;;72.13;37.97;;;;;;;;;;5004502;28;20270;-67
2021/06/29 06:26:32;;;;;;;73.65;40.28;;;;;;;;;;5000188;28;20202;-67
2021/06/29 06:28:57;;;;;;;70.80;39.55;;;;;;;;;;5002282;28;20202;-67
2021/06/29 06:31:23;;;;;;;71.93;39.72;;;;;;;;;;4995423;28;20225;-67
2021/06/29 06:33:48;;;;;;;69.63;38.90;;;;;;;;;;5003645;28;20962;-67
2021/06/29 06:36:14;;;;;;;73.63;39.33;;;;;;;;;;4996773;28;20195;-66
2021/06/29 06:38:39;;;;;;;72.53;39.40;;;;;;;;;;5003763;28;20270;-66
2021/06/29 06:41:05;;;;;;;75.82;39.75;;;;;;;;;;5005405;28;20247;-66
2021/06/29 06:43:30;;;;;;;72.20;39.75;;;;;;;;;;5015627;28;20190;-66
2021/06/29 06:45:56;;;;;;;68.55;37.58;;;;;;;;;;5003323;28;20719;-66
2021/06/29 06:48:21;;;;;;;69.78;38.42;;;;;;;;;;5004059;28;20549;-67
2021/06/29 06:50:46;;;;;;;67.80;37.65;;;;;;;;;;5005823;28;20218;-67
2021/06/29 06:53:13;;;;;;;72.30;38.17;;;;;;;;;;5000327;28;20226;-67
2021/06/29 06:55:39;;;;;;;66.13;36.90;;;;;;;;;;5002784;28;20182;-66
2021/06/29 06:58:04;;;;;;;64.25;36.40;;;;;;;;;;4999090;28;20186;-66
2021/06/29 07:00:30;;;;;;;73.72;39.00;;;;;;;;;;5004022;28;20223;-68
2021/06/29 07:02:55;;;;;;;65.38;37.85;;;;;;;;;;4998441;28;20562;-66
2021/06/29 07:05:22;;;;;;;69.53;37.05;;;;;;;;;;5009215;28;20693;-66
2021/06/29 07:07:47;;;;;;;69.15;37.38;;;;;;;;;;5000984;28;20718;-66
2021/06/29 07:10:13;;;;;;;66.45;37.30;;;;;;;;;;4999186;28;20206;-66
2021/06/29 07:12:39;;;;;;;72.45;39.25;;;;;;;;;;5003925;28;20261;-66
2021/06/29 07:15:06;;;;;;;65.65;36.25;;;;;;;;;;4998195;28;20302;-66
2021/06/29 07:17:34;;;;;;;63.83;35.45;;;;;;;;;;5001986;28;20181;-66
2021/06/29 07:19:59;;;;;;;65.68;34.85;;;;;;;;;;4992694;28;20184;-66
2021/06/29 07:22:25;;;;;;;76.97;38.17;;;;;;;;;;5001970;28;20218;-66
2021/06/29 07:24:50;;;;;;;67.93;36.03;;;;;;;;;;4996389;28;20183;-66
2021/06/29 07:27:15;;;;;;;64.90;34.92;;;;;;;;;;5002237;28;20183;-66
2021/06/29 07:29:41;;;;;;;68.30;37.38;;;;;;;;;;4996071;28;20298;-66
2021/06/29 07:32:07;;;;;;;63.15;33.25;;;;;;;;;;5001199;28;20179;-67
2021/06/29 07:34:32;;;;;;;68.53;36.72;;;;;;;;;;4992537;28;20769;-67
2021/06/29 07:36:57;;;;;;;71.45;39.17;;;;;;;;;;5004772;28;20187;-67
2021/06/29 07:39:23;;;;;;;67.72;37.30;;;;;;;;;;5006681;28;20278;-67
2021/06/29 07:41:48;;;;;;;65.57;37.60;;;;;;;;;;4996225;28;20221;-67
2021/06/29 07:44:14;;;;;;;65.32;36.90;;;;;;;;;;5004347;28;20182;-67
2021/06/29 07:46:39;;;;;;;58.05;34.63;;;;;;;;;;4996899;28;20529;-67
2021/06/29 07:49:05;;;;;;;46.83;32.20;;;;;;;;;;5006230;28;20182;-67
2021/06/29 07:51:32;;;;;;;45.15;29.85;;;;;;;;;;4998353;28;20219;-66
2021/06/29 07:53:57;;;;;;;48.67;30.38;;;;;;;;;;5005391;28;20198;-66
2021/06/29 07:56:23;;;;;;;45.30;30.70;;;;;;;;;;4995330;28;20631;-67
2021/06/29 07:58:48;;;;;;;39.85;28.48;;;;;;;;;;5002420;28;20540;-67
2021/06/29 08:01:15;;;;;;;43.35;30.10;;;;;;;;;;4998208;28;20737;-67
2021/06/29 08:03:41;;;;;;;39.55;27.83;;;;;;;;;;5003736;28;21304;-67
2021/06/29 08:06:06;;;;;;;45.83;30.73;;;;;;;;;;4994305;28;20261;-67
2021/06/29 08:08:32;;;;;;;40.90;28.63;;;;;;;;;;5005917;28;20179;-67
2021/06/29 08:11:04;;;;;;;43.75;29.92;;;;;;;;;;4997743;28;20298;-67
2021/06/29 08:13:29;;;;;;;44.47;30.35;;;;;;;;;;5005277;28;20202;-67
2021/06/29 08:15:55;;;;;;;44.58;30.70;;;;;;;;;;5004960;28;20222;-67
2021/06/29 08:18:23;;;;;;;45.28;30.40;;;;;;;;;;4996569;28;20182;-67
2021/06/29 08:20:48;;;;;;;46.20;30.50;;;;;;;;;;5000615;28;20237;-67
2021/06/29 08:23:14;;;;;;;47.00;31.73;;;;;;;;;;4996972;28;20203;-67
2021/06/29 08:25:40;;;;;;;51.90;32.17;;;;;;;;;;5001117;28;20190;-67
2021/06/29 08:28:05;;;;;;;51.75;33.25;;;;;;;;;;4996545;28;20190;-67
2021/06/29 08:30:32;;;;;;;48.85;31.35;;;;;;;;;;5005682;28;20199;-67
2021/06/29 08:32:57;;;;;;;48.08;32.30;;;;;;;;;;4995103;28;20531;-67
2021/06/29 08:35:23;;;;;;;50.60;32.78;;;;;;;;;;5006582;28;20186;-67
2021/06/29 08:37:48;;;;;;;46.95;33.53;;;;;;;;;;4994657;28;20370;-66
2021/06/29 08:40:14;;;;;;;43.33;31.33;;;;;;;;;;5009245;28;20251;-67
2021/06/29 08:42:40;;;;;;;41.63;31.73;;;;;;;;;;4995316;28;20187;-67
2021/06/29 08:45:14;;;;;;;37.55;28.77;;;;;;;;;;5071605;27;20916;-69
2021/06/29 08:47:40;;;;;;;39.35;29.85;;;;;;;;;;5066966;28;20636;-67
2021/06/29 08:50:09;;;;;;;41.65;30.33;;;;;;;;;;5069103;28;20269;-67
2021/06/29 08:52:35;;;;;;;35.35;29.13;;;;;;;;;;5068431;28;20269;-67
2021/06/29 08:55:00;;;;;;;37.63;27.98;;;;;;;;;;5071134;28;20335;-67
2021/06/29 08:57:26;;;;;;;35.78;27.42;;;;;;;;;;5075136;28;20200;-67
2021/06/29 08:59:51;;;;;;;34.67;26.88;;;;;;;;;;5060068;28;20205;-67
2021/06/29 09:02:17;;;;;;;34.35;27.08;;;;;;;;;;5056652;28;20212;-67
2021/06/29 09:04:47;;;;;;;32.63;26.15;;;;;;;;;;5050164;28;20296;-67
2021/06/29 09:07:27;;;;;;;30.05;23.67;;;;;;;;;;5059684;28;20212;-67
2021/06/29 09:09:57;;;;;;;34.38;24.88;;;;;;;;;;5049328;28;20214;-67
2021/06/29 09:12:46;;;;;;;27.52;23.00;;;;;;;;;;5059089;28;20199;-67
2021/06/29 09:15:21;;;;;;;32.33;22.20;;;;;;;;;;5045420;28;20176;-67
2021/06/29 09:17:47;;;;;;;30.67;21.75;;;;;;;;;;5057012;28;20282;-67
2021/06/29 09:20:12;;;;;;;30.38;21.20;;;;;;;;;;5044015;28;20277;-67
2021/06/29 09:22:38;;;;;;;28.67;21.50;;;;;;;;;;5041086;28;20248;-67
2021/06/29 09:25:27;;;;;;;26.58;21.50;;;;;;;;;;5047850;28;20592;-67
2021/06/29 09:27:53;;;;;;;31.13;21.77;;;;;;;;;;5057420;28;20267;-67
2021/06/29 09:30:33;;;;;;;28.55;22.60;;;;;;;;;;5049653;28;20310;-67
2021/06/29 09:33:02;;;;;;;31.83;22.33;;;;;;;;;;5057287;28;20326;-67
2021/06/29 09:35:28;;;;;;;27.88;21.90;;;;;;;;;;5045184;28;20254;-68
2021/06/29 09:37:54;;;;;;;30.35;22.35;;;;;;;;;;5057558;28;20247;-67
2021/06/29 09:40:20;;;;;;;30.20;23.13;;;;;;;;;;5057759;28;20231;-68
2021/06/29 09:42:45;;;;;;;32.10;22.50;;;;;;;;;;5049513;28;20232;-67
2021/06/29 09:45:30;;;;;;;31.73;22.77;;;;;;;;;;5039648;28;20194;-67
2021/06/29 09:47:56;;;;;;;30.02;23.73;;;;;;;;;;5032416;28;20185;-67
2021/06/29 09:50:36;;;;;;;34.95;23.45;;;;;;;;;;5036359;28;20613;-67
2021/06/29 09:53:23;;;;;;;32.88;22.92;;;;;;;;;;5027115;28;20279;-67
2021/06/29 09:55:51;;;;;;;26.63;21.98;;;;;;;;;;5031639;28;20188;-68
2021/06/29 09:58:17;;;;;;;30.65;23.27;;;;;;;;;;4996489;28;20190;-67
2021/06/29 10:00:46;;;;;;;27.20;21.15;;;;;;;;;;5023204;28;20661;-67
2021/06/29 10:03:15;;;;;;;30.27;21.42;;;;;;;;;;5014982;28;20236;-67
2021/06/29 10:05:41;;;;;;;28.95;21.35;;;;;;;;;;5022715;28;20522;-67
2021/06/29 10:08:06;;;;;;;31.67;21.55;;;;;;;;;;5016540;28;20872;-68
2021/06/29 10:10:31;;;;;;;27.33;20.65;;;;;;;;;;5027124;28;20280;-67
2021/06/29 10:13:14;;;;;;;27.38;20.65;;;;;;;;;;5020549;28;20196;-66
2021/06/29 10:15:40;;;;;;;27.38;20.77;;;;;;;;;;5023395;28;20208;-67
2021/06/29 10:18:06;;;;;;;25.50;19.77;;;;;;;;;;5027896;28;20194;-67
2021/06/29 10:20:48;;;;;;;19.35;16.90;;;;;;;;;;5023106;28;20241;-67
2021/06/29 10:23:16;;;;;;;21.70;16.85;;;;;;;;;;5018501;28;20225;-68
2021/06/29 10:25:44;;;;;;;20.23;17.05;;;;;;;;;;5024354;28;20197;-67
2021/06/29 10:28:13;;;;;;;18.38;15.73;;;;;;;;;;5014833;28;24042;-67
2021/06/29 10:30:38;;;;;;;22.33;15.70;;;;;;;;;;5022312;28;20185;-68
2021/06/29 10:33:04;;;;;;;20.58;16.55;;;;;;;;;;5023287;28;20208;-68
2021/06/29 10:35:30;;;;;;;21.42;16.08;;;;;;;;;;5016229;28;20244;-66
2021/06/29 10:37:55;;;;;;;18.80;14.52;;;;;;;;;;5010180;28;20192;-67
2021/06/29 10:40:20;;;;;;;18.65;13.57;;;;;;;;;;5016858;28;20582;-67
2021/06/29 10:42:47;;;;;;;17.40;13.43;;;;;;;;;;5028339;28;20227;-67
2021/06/29 10:45:13;;;;;;;24.05;15.32;;;;;;;;;;5014507;28;20301;-66
2021/06/29 10:47:39;;;;;;;18.67;14.65;;;;;;;;;;5026511;28;20186;-67
2021/06/29 10:50:14;;;;;;;22.35;14.90;;;;;;;;;;5012980;28;20217;-67
2021/06/29 10:52:41;;;;;;;17.30;14.30;;;;;;;;;;5026498;28;20166;-67
2021/06/29 10:55:27;;;;;;;20.13;15.52;;;;;;;;;;5015830;28;20201;-67
2021/06/29 10:57:55;;;;;;;24.23;16.13;;;;;;;;;;5020058;28;20614;-67
2021/06/29 11:00:20;;;;;;;21.52;15.60;;;;;;;;;;5013677;28;20720;-67
2021/06/29 11:02:57;;;;;;;20.10;14.52;;;;;;;;;;5028168;28;20257;-67
2021/06/29 11:05:29;;;;;;;14.73;12.68;;;;;;;;;;5017048;28;20703;-67
2021/06/29 11:08:11;;;;;;;18.20;12.75;;;;;;;;;;5026313;28;20185;-67
2021/06/29 11:10:38;;;;;;;13.52;9.65;;;;;;;;;;5015495;28;20768;-66
2021/06/29 11:13:05;;;;;;;10.68;8.18;;;;;;;;;;5028410;28;20190;-67
2021/06/29 11:15:57;;;;;;;10.80;7.75;;;;;;;;;;5015495;28;20225;-67
2021/06/29 11:18:34;;;;;;;10.60;7.82;;;;;;;;;;5024713;28;20622;-66
2021/06/29 11:21:02;;;;;;;11.73;7.68;;;;;;;;;;5012908;28;20219;-67
2021/06/29 11:23:30;;;;;;;12.50;7.72;;;;;;;;;;5011343;28;20259;-67
2021/06/29 11:26:11;;;;;;;11.20;7.97;;;;;;;;;;5017143;28;20217;-66
2021/06/29 11:28:38;;;;;;;10.93;7.97;;;;;;;;;;5024447;28;20181;-67
2021/06/29 11:31:16;;;;;;;12.63;7.68;;;;;;;;;;5017602;28;20301;-68
2021/06/29 11:33:47;;;;;;;13.55;8.63;;;;;;;;;;5028594;28;20190;-67
2021/06/29 11:36:46;;;;;;;27.80;9.25;;;;;;;;;;5021944;28;20190;-66
2021/06/29 11:39:20;;;;;;;14.98;8.18;;;;;;;;;;5025143;28;20205;-66
2021/06/29 11:42:04;;;;;;;11.45;7.63;;;;;;;;;;5014132;28;20182;-67
2021/06/29 11:44:32;;;;;;;16.73;8.48;;;;;;;;;;5026106;28;20234;-67
2021/06/29 11:47:06;;;;;;;12.57;8.02;;;;;;;;;;5012978;28;20182;-66
2021/06/29 11:49:55;;;;;;;11.18;8.40;;;;;;;;;;5025704;28;20194;-68
2021/06/29 11:52:28;;;;;;;12.13;7.72;;;;;;;;;;5011922;28;20558;-67
2021/06/29 11:55:03;;;;;;;10.10;8.07;;;;;;;;;;5023288;28;20194;-67
2021/06/29 11:57:41;;;;;;;12.98;7.90;;;;;;;;;;4995410;28;20282;-66
2021/06/29 12:00:18;;;;;;;14.05;7.95;;;;;;;;;;5005073;28;20323;-66
2021/06/29 12:02:43;;;;;;;10.02;7.28;;;;;;;;;;5010034;28;20290;-67
2021/06/29 12:05:19;;;;;;;9.98;7.43;;;;;;;;;;5018327;28;20205;-67
2021/06/29 12:07:56;;;;;;;11.05;7.80;;;;;;;;;;5023288;28;20170;-68
2021/06/29 12:10:21;;;;;;;14.38;8.55;;;;;;;;;;5019376;28;20185;-67
2021/06/29 12:12:54;;;;;;;11.38;8.43;;;;;;;;;;5022397;28;21724;-66
2021/06/29 12:15:23;;;;;;;11.48;8.57;;;;;;;;;;5015295;28;20194;-67
2021/06/29 12:18:08;;;;;;;13.27;8.25;;;;;;;;;;5019764;28;20613;-67
2021/06/29 12:20:49;;;;;;;13.18;9.23;;;;;;;;;;5007169;28;20190;-67
2021/06/29 12:23:21;;;;;;;17.17;9.10;;;;;;;;;;5000113;28;20207;-66
2021/06/29 12:25:52;;;;;;;14.52;8.98;;;;;;;;;;5009940;28;20194;-66
2021/06/29 12:28:29;;;;;;;14.05;9.00;;;;;;;;;;5020604;28;20189;-66
2021/06/29 12:30:59;;;;;;;17.05;9.80;;;;;;;;;;5011230;28;20210;-66
2021/06/29 12:33:34;;;;;;;14.27;9.90;;;;;;;;;;5019760;28;20208;-66
2021/06/29 12:36:09;;;;;;;13.45;9.07;;;;;;;;;;5011311;28;20194;-67
2021/06/29 12:38:40;;;;;;;12.98;9.50;;;;;;;;;;5019338;28;20194;-66
2021/06/29 12:41:19;;;;;;;14.80;9.90;;;;;;;;;;5011220;28;20202;-66
2021/06/29 12:43:46;;;;;;;13.65;8.70;;;;;;;;;;5018966;28;20230;-66
2021/06/29 12:46:17;;;;;;;17.35;9.40;;;;;;;;;;5009607;28;20559;-67
2021/06/29 12:49:08;;;;;;;14.70;8.70;;;;;;;;;;5017790;28;20178;-67
2021/06/29 12:51:43;;;;;;;10.93;7.63;;;;;;;;;;5010060;28;20190;-66
2021/06/29 12:54:11;;;;;;;9.30;7.75;;;;;;;;;;5018523;28;20256;-67
2021/06/29 12:56:47;;;;;;;10.48;7.93;;;;;;;;;;5012487;28;20190;-67
2021/06/29 12:59:14;;;;;;;9.05;7.32;;;;;;;;;;5018559;28;20702;-67
2021/06/29 13:01:42;;;;;;;11.23;7.57;;;;;;;;;;4993262;28;20208;-66
2021/06/29 13:04:15;;;;;;;13.20;8.57;;;;;;;;;;5018494;28;20280;-67
2021/06/29 13:06:42;;;;;;;8.13;7.00;;;;;;;;;;5008325;28;20198;-66
2021/06/29 13:09:16;;;;;;;8.85;7.22;;;;;;;;;;5019541;28;20551;-66
2021/06/29 13:12:13;;;;;;;10.05;7.13;;;;;;;;;;5011234;28;20248;-67
2021/06/29 13:14:52;;;;;;;9.85;7.43;;;;;;;;;;5004422;28;20221;-66
2021/06/29 13:17:17;;;;;;;9.63;6.60;;;;;;;;;;5008405;28;20181;-68
2021/06/29 13:19:43;;;;;;;11.07;7.50;;;;;;;;;;5019452;28;20193;-68
2021/06/29 13:22:11;;;;;;;9.07;7.13;;;;;;;;;;4993591;28;20477;-67
2021/06/29 13:24:50;;;;;;;9.05;7.10;;;;;;;;;;5021925;28;20309;-67
2021/06/29 13:27:29;;;;;;;9.75;7.57;;;;;;;;;;5010654;28;20186;-67
2021/06/29 13:30:05;;;;;;;10.55;7.53;;;;;;;;;;5017681;28;20192;-67
2021/06/29 13:32:36;;;;;;;8.93;7.40;;;;;;;;;;5017891;28;20272;-68
2021/06/29 13:35:10;;;;;;;9.77;7.47;;;;;;;;;;5023389;28;20194;-67
2021/06/29 13:37:41;;;;;;;8.10;6.97;;;;;;;;;;5013099;28;20186;-68
2021/06/29 13:40:21;;;;;;;8.95;7.70;;;;;;;;;;5028008;28;20240;-67
2021/06/29 13:43:01;;;;;;;7.90;7.10;;;;;;;;;;5015777;28;20209;-67
2021/06/29 13:45:32;;;;;;;8.10;7.30;;;;;;;;;;5026735;28;20186;-67
2021/06/29 13:47:57;;;;;;;8.45;7.38;;;;;;;;;;5024120;28;20784;-67
2021/06/29 13:50:32;;;;;;;8.38;6.80;;;;;;;;;;5025890;28;20265;-67
2021/06/29 13:53:03;;;;;;;7.05;6.38;;;;;;;;;;5008381;28;20190;-67
2021/06/29 13:55:35;;;;;;;8.43;7.43;;;;;;;;;;5017272;28;20263;-67
2021/06/29 13:58:20;;;;;;;9.35;6.93;;;;;;;;;;5011006;28;20182;-67
2021/06/29 14:00:48;;;;;;;8.77;6.97;;;;;;;;;;4999093;28;20224;-67
2021/06/29 14:03:19;;;;;;;8.10;7.32;;;;;;;;;;5014409;28;20277;-67
2021/06/29 14:05:49;;;;;;;9.05;7.95;;;;;;;;;;5021425;28;20189;-68
2021/06/29 14:08:24;;;;;;;9.02;7.50;;;;;;;;;;5027593;28;20276;-67
2021/06/29 14:11:03;;;;;;;8.90;7.60;;;;;;;;;;5018556;28;20228;-68
2021/06/29 14:13:53;;;;;;;9.00;6.70;;;;;;;;;;5025667;28;20194;-68
2021/06/29 14:16:21;;;;;;;7.28;6.57;;;;;;;;;;5007178;28;20202;-67
2021/06/29 14:18:47;;;;;;;7.80;7.00;;;;;;;;;;5030212;28;20653;-66
2021/06/29 14:21:16;;;;;;;9.23;6.88;;;;;;;;;;5020366;28;20196;-68
2021/06/29 14:23:43;;;;;;;11.23;7.88;;;;;;;;;;5027400;28;20594;-68
2021/06/29 14:26:08;;;;;;;9.13;7.90;;;;;;;;;;5001239;28;20204;-66
2021/06/29 14:28:35;;;;;;;11.93;8.70;;;;;;;;;;5027540;28;20198;-66
2021/06/29 14:31:02;;;;;;;12.98;9.00;;;;;;;;;;5018339;28;20653;-66